createdAt,value
2024-01-19T00:02:18.300Z,24.17
2024-01-19T00:07:10.269Z,24.58
2024-01-19T00:12:02.545Z,23.10
2024-01-19T00:16:54.343Z,23.48
2024-01-19T00:21:47.550Z,23.02
2024-01-19T00:26:39.429Z,23.80
2024-01-19T00:31:31.638Z,23.40
2024-01-19T00:36:23.910Z,21.30
2024-01-19T00:41:16.890Z,21.83
2024-01-19T00:46:08.703Z,21.13
2024-01-19T00:51:00.853Z,23.83
2024-01-19T00:55:52.800Z,22.38
2024-01-19T01:00:44.641Z,23.70
2024-01-19T01:05:36.528Z,22.15
2024-01-19T01:10:28.400Z,23.73
2024-01-19T01:15:20.185Z,22.52
2024-01-19T01:20:12.754Z,22.60
2024-01-19T01:25:04.952Z,20.33
2024-01-19T01:29:56.766Z,22.00
2024-01-19T01:34:48.625Z,19.95
2024-01-19T01:39:40.494Z,22.75
2024-01-19T01:44:33.073Z,23.05
2024-01-19T01:49:25.659Z,22.33
2024-01-19T01:54:17.589Z,21.50
2024-01-19T01:59:10.398Z,22.38
2024-01-19T02:04:03.656Z,19.45
2024-01-19T02:08:55.978Z,20.33
2024-01-19T02:13:47.840Z,20.38
2024-01-19T02:18:40.642Z,20.17
2024-01-19T02:23:43.303Z,18.52
2024-01-19T02:28:35.573Z,18.60
2024-01-19T02:33:27.855Z,19.17
2024-01-19T02:38:19.738Z,20.58
2024-01-19T02:43:11.516Z,20.02
2024-01-19T02:48:03.954Z,20.80
2024-01-19T02:52:55.960Z,19.30
2024-01-19T02:57:47.709Z,18.73
2024-01-19T03:02:39.576Z,21.77
2024-01-19T03:07:31.401Z,19.13
2024-01-19T03:12:23.151Z,20.30
2024-01-19T03:17:14.960Z,20.80
2024-01-19T03:22:06.895Z,21.83
2024-01-19T03:26:58.734Z,17.77
2024-01-19T03:31:50.681Z,16.95
2024-01-19T03:36:42.595Z,16.73
2024-01-19T03:41:34.400Z,18.58
2024-01-19T03:46:26.231Z,18.90
2024-01-19T03:51:17.960Z,17.20
2024-01-19T03:56:10.517Z,18.25
2024-01-19T04:01:02.409Z,18.05
2024-01-19T04:05:54.335Z,17.60
2024-01-19T04:10:46.113Z,16.55
2024-01-19T04:15:37.833Z,17.90
2024-01-19T04:20:29.587Z,18.55
2024-01-19T04:25:21.319Z,17.27
2024-01-19T04:30:13.391Z,16.45
2024-01-19T04:35:05.930Z,17.65
2024-01-19T04:39:57.753Z,16.15
2024-01-19T04:44:49.873Z,16.30
2024-01-19T04:49:41.600Z,16.13
2024-01-19T04:54:33.331Z,14.90
2024-01-19T04:59:25.208Z,17.20
2024-01-19T05:04:16.979Z,16.33
2024-01-19T05:09:09.432Z,16.25
2024-01-19T05:14:04.225Z,15.25
2024-01-19T05:18:56.053Z,13.90
2024-01-19T05:23:47.940Z,13.85
2024-01-19T05:28:40.415Z,15.23
2024-01-19T05:33:35.520Z,15.32
2024-01-19T05:38:29.404Z,14.27
2024-01-19T05:43:21.159Z,13.85
2024-01-19T05:48:13.138Z,15.10
2024-01-19T05:53:04.868Z,14.43
2024-01-19T05:57:56.586Z,14.93
2024-01-19T06:02:48.346Z,14.27
2024-01-19T06:07:40.528Z,15.65
2024-01-19T06:12:32.324Z,15.57
2024-01-19T06:17:24.185Z,15.77
2024-01-19T06:22:15.962Z,15.07
2024-01-19T06:27:07.746Z,15.82
2024-01-19T06:31:59.551Z,19.17
2024-01-19T06:36:51.252Z,14.18
2024-01-19T06:41:46.412Z,15.98
2024-01-19T06:46:38.682Z,16.13
2024-01-19T06:51:30.393Z,14.15
2024-01-19T06:56:22.134Z,15.40
2024-01-19T07:01:14.118Z,15.57
2024-01-19T07:06:06.573Z,15.10
2024-01-19T07:10:58.389Z,14.77
2024-01-19T07:15:50.293Z,17.90
2024-01-19T07:20:43.336Z,18.38
2024-01-19T07:25:35.157Z,14.88
2024-01-19T07:30:26.834Z,15.65
2024-01-19T07:35:18.982Z,13.95
2024-01-19T07:40:11.322Z,13.38
2024-01-19T07:45:03.217Z,13.60
2024-01-19T07:49:55.080Z,13.48
2024-01-19T07:54:46.776Z,21.05
2024-01-19T07:59:38.529Z,19.48
2024-01-19T08:04:30.617Z,14.68
2024-01-19T08:09:22.381Z,15.20
2024-01-19T08:14:14.418Z,18.65
2024-01-19T08:19:06.311Z,17.92
2024-01-19T08:23:58.489Z,16.58
2024-01-19T08:28:50.317Z,16.65
2024-01-19T08:33:42.227Z,16.13
2024-01-19T08:38:34.190Z,16.40
2024-01-19T08:43:26.307Z,15.57
2024-01-19T08:48:18.118Z,16.08
2024-01-19T08:53:09.860Z,16.17
2024-01-19T08:58:01.666Z,16.48
2024-01-19T09:03:00.415Z,17.50
2024-01-19T09:07:56.141Z,17.83
2024-01-19T09:12:47.943Z,17.42
2024-01-19T09:17:39.735Z,15.45
2024-01-19T09:22:31.460Z,14.93
2024-01-19T09:27:23.230Z,15.38
2024-01-19T09:32:17.723Z,17.52
2024-01-19T09:37:09.421Z,16.77
2024-01-19T09:42:19.436Z,15.23
2024-01-19T09:47:22.523Z,15.77
2024-01-19T09:52:27.742Z,16.00
2024-01-19T09:57:19.550Z,15.13
2024-01-19T10:02:13.686Z,17.00
2024-01-19T10:07:05.453Z,16.10
2024-01-19T10:11:57.306Z,16.42
2024-01-19T10:16:50.451Z,15.90
2024-01-19T10:21:42.124Z,20.08
2024-01-19T10:26:33.826Z,17.10
2024-01-19T10:31:27.500Z,15.80
2024-01-19T10:36:19.885Z,17.55
2024-01-19T10:41:23.466Z,16.48
2024-01-19T10:46:23.227Z,15.30
2024-01-19T10:51:15.021Z,16.48
2024-01-19T10:56:06.856Z,17.35
2024-01-19T11:01:13.454Z,18.20
2024-01-19T11:06:05.406Z,15.90
2024-01-19T11:10:57.788Z,16.73
2024-01-19T11:15:51.720Z,16.77
2024-01-19T11:20:43.774Z,16.77
2024-01-19T11:26:05.196Z,15.55
2024-01-19T11:31:17.932Z,15.23
2024-01-19T11:36:10.186Z,15.68
2024-01-19T11:41:01.987Z,15.02
2024-01-19T11:45:54.197Z,17.85
2024-01-19T11:50:48.501Z,15.60
2024-01-19T11:55:42.702Z,17.67
2024-01-19T12:00:34.683Z,16.15
2024-01-19T12:05:27.069Z,16.05
2024-01-19T12:10:19.614Z,15.65
2024-01-19T12:15:12.678Z,17.40
2024-01-19T12:20:10.756Z,14.93
2024-01-19T12:25:23.309Z,22.15
2024-01-19T12:30:17.179Z,24.13
2024-01-19T12:35:09.463Z,37.75
2024-01-19T12:40:22.576Z,41.95
2024-01-19T12:45:17.002Z,41.13
2024-01-19T12:50:13.888Z,45.97
2024-01-19T12:55:09.373Z,44.67
2024-01-19T13:00:12.625Z,46.42
2024-01-19T13:05:06.005Z,38.17
2024-01-19T13:10:02.603Z,29.92
2024-01-19T13:15:13.031Z,32.85
2024-01-19T13:20:05.927Z,34.42
2024-01-19T13:24:57.903Z,28.75
2024-01-19T13:29:49.885Z,31.35
2024-01-19T13:34:43.464Z,28.92
2024-01-19T13:39:35.412Z,28.13
2024-01-19T13:44:27.374Z,31.35
2024-01-19T13:49:19.141Z,29.15
2024-01-19T13:54:10.982Z,27.75
2024-01-19T13:59:02.758Z,32.95
2024-01-19T14:03:55.002Z,28.20
2024-01-19T14:08:48.153Z,26.60
2024-01-19T14:13:40.191Z,27.35
2024-01-19T14:18:34.942Z,24.65
2024-01-19T14:23:28.697Z,23.70
2024-01-19T14:28:20.565Z,22.77
2024-01-19T14:33:12.637Z,26.83
2024-01-19T14:38:06.129Z,22.95
2024-01-19T14:43:08.802Z,16.38
2024-01-19T14:48:00.762Z,21.35
2024-01-19T14:52:54.915Z,21.05
2024-01-19T14:57:46.920Z,20.67
2024-01-19T15:02:39.068Z,15.00
2024-01-19T15:07:32.995Z,19.20
2024-01-19T15:12:24.821Z,19.88
2024-01-19T15:17:16.614Z,22.35
2024-01-19T15:22:08.369Z,18.63
2024-01-19T15:27:00.095Z,18.08
2024-01-19T15:31:55.332Z,17.42
2024-01-19T15:36:48.684Z,16.75
2024-01-19T15:41:40.470Z,18.92
2024-01-19T15:46:32.306Z,15.65
2024-01-19T15:51:25.509Z,19.98
2024-01-19T15:56:29.367Z,20.33
2024-01-19T16:01:23.872Z,19.80
2024-01-19T16:06:16.462Z,18.92
2024-01-19T16:11:09.869Z,17.38
2024-01-19T16:16:11.804Z,17.83
2024-01-19T16:21:04.354Z,16.20
2024-01-19T16:25:56.569Z,20.05
2024-01-19T16:30:48.467Z,16.15
2024-01-19T16:35:40.264Z,16.80
2024-01-19T16:40:31.992Z,18.83
2024-01-19T16:45:23.837Z,14.77
2024-01-19T16:50:15.611Z,17.05
2024-01-19T16:55:08.011Z,13.45
2024-01-19T16:59:59.743Z,8.48
2024-01-19T17:04:51.651Z,11.07
2024-01-19T17:09:43.502Z,16.85
2024-01-19T17:14:37.100Z,11.43
2024-01-19T17:19:29.323Z,9.90
2024-01-19T17:24:21.299Z,11.30
2024-01-19T17:29:14.149Z,10.70
2024-01-19T17:34:09.860Z,10.27
2024-01-19T17:39:05.583Z,11.10
2024-01-19T17:43:57.451Z,12.35
2024-01-19T17:48:50.027Z,9.68
2024-01-19T17:53:42.268Z,8.68
2024-01-19T17:58:34.047Z,10.05
2024-01-19T18:03:27.057Z,9.55
2024-01-19T18:08:18.863Z,6.35
2024-01-19T18:13:10.632Z,8.60
2024-01-19T18:18:03.278Z,6.93
2024-01-19T18:22:55.468Z,6.30
2024-01-19T18:27:48.195Z,6.25
2024-01-19T18:32:41.913Z,7.32
2024-01-19T18:37:34.600Z,7.57
2024-01-19T18:42:26.358Z,7.97
2024-01-19T18:47:18.152Z,6.75
2024-01-19T18:52:10.016Z,4.72
2024-01-19T18:57:01.942Z,5.18
2024-01-19T19:01:53.906Z,4.60
2024-01-19T19:06:45.828Z,5.75
2024-01-19T19:11:37.892Z,5.90
2024-01-19T19:16:37.075Z,6.38
2024-01-19T19:21:37.233Z,3.90
2024-01-19T19:26:29.315Z,7.20
2024-01-19T19:31:22.211Z,5.00
2024-01-19T19:36:14.372Z,6.90
2024-01-19T19:41:07.046Z,9.35
2024-01-19T19:45:59.068Z,3.90
2024-01-19T19:50:50.754Z,4.43
2024-01-19T19:55:48.699Z,3.30
2024-01-19T20:00:40.868Z,5.53
2024-01-19T20:05:32.631Z,7.35
2024-01-19T20:10:24.478Z,4.32
2024-01-19T20:15:17.159Z,7.05
2024-01-19T20:20:09.890Z,7.03
2024-01-19T20:25:02.097Z,3.35
2024-01-19T20:29:53.806Z,6.70
2024-01-19T20:34:47.174Z,3.25
2024-01-19T20:39:39.345Z,3.42
2024-01-19T20:44:31.125Z,2.97
2024-01-19T20:49:25.284Z,3.50
2024-01-19T20:54:17.106Z,5.00
2024-01-19T20:59:08.976Z,3.03
2024-01-19T21:04:00.950Z,3.90
2024-01-19T21:08:52.857Z,3.00
2024-01-19T21:13:45.193Z,5.20
2024-01-19T21:18:38.632Z,2.53
2024-01-19T21:23:30.546Z,2.65
2024-01-19T21:28:22.362Z,2.88
2024-01-19T21:33:14.166Z,4.20
2024-01-19T21:38:06.096Z,3.13
2024-01-19T21:42:58.747Z,4.03
2024-01-19T21:47:50.920Z,3.90
2024-01-19T21:52:45.547Z,4.65
2024-01-19T21:57:38.927Z,3.47
2024-01-19T22:02:30.784Z,2.40
2024-01-19T22:07:22.638Z,3.92
2024-01-19T22:12:15.224Z,3.22
2024-01-19T22:17:07.180Z,3.33
2024-01-19T22:21:59.006Z,2.95
2024-01-19T22:26:51.183Z,2.60
2024-01-19T22:31:43.842Z,3.08
2024-01-19T22:36:36.353Z,3.13
2024-01-19T22:41:28.529Z,1.73
2024-01-19T22:46:20.831Z,2.80
2024-01-19T22:51:13.891Z,5.70
2024-01-19T22:56:06.326Z,2.92
2024-01-19T23:00:58.573Z,2.28
2024-01-19T23:05:50.424Z,2.85
2024-01-19T23:10:42.286Z,2.47
2024-01-19T23:15:34.252Z,2.00
2024-01-19T23:20:26.674Z,2.70
2024-01-19T23:25:23.318Z,2.17
2024-01-19T23:30:22.261Z,2.35
2024-01-19T23:35:14.495Z,3.63
2024-01-19T23:40:07.316Z,2.15
2024-01-19T23:45:00.938Z,2.28
2024-01-19T23:49:52.733Z,2.30
2024-01-19T23:54:44.579Z,2.17
2024-01-19T23:59:36.693Z,2.70
